Wynona, Oklahoma
Current Conditions -  °F | °C
As of 2:24 AM on Thursday 18 Dec 2014 (Local Time) from KBVO Reporting Station
Haze Haze  
Wind Chill: 28°   Ceiling: 300
Heat Index: 33°   Visibility: 3mi
Dew Point: 32°   Wind: 6mph
Humidity: 96%   Direction: 70°ENE
Pressure: 30.18"   Gusts: NA
Location:  36.55°N, 96.33°W
Report Text: KBVO 180824Z AUTO 07005KT 3SM BR OVC003 01/00 A3018 RMK AO2 T00060000
Loading
Personal Weather Stations






























Interactive Weather Map New forecast layout! Learn more

10-Day Weather Forecast

Advertisements
Track Severe Weather on mobile